createdAt,value
2019-03-13T00:02:54.846Z,300.5
2019-03-13T00:08:03.517Z,300.5
2019-03-13T00:13:12.270Z,300.5
2019-03-13T00:18:20.917Z,300.5
2019-03-13T00:23:29.603Z,300.4
2019-03-13T00:28:38.391Z,300.5
2019-03-13T00:33:47.049Z,300.7
2019-03-13T00:38:55.766Z,300.5
2019-03-13T00:44:04.508Z,300.5
2019-03-13T00:49:13.233Z,300.5
2019-03-13T01:04:39.418Z,300.7
2019-03-13T01:09:48.170Z,300.7
2019-03-13T01:20:05.639Z,300.7
2019-03-13T01:25:14.371Z,300.7
2019-03-13T01:35:31.898Z,300.5
2019-03-13T01:40:40.648Z,300.7
2019-03-13T01:45:49.396Z,300.9
2019-03-13T01:56:06.755Z,300.7
2019-03-13T02:06:24.284Z,300.6
2019-03-13T02:11:32.918Z,301
2019-03-13T02:16:41.631Z,300.8
2019-03-13T02:47:33.979Z,300.7
2019-03-13T02:52:42.607Z,300.7
2019-03-13T02:57:51.238Z,300.8
2019-03-13T03:08:08.733Z,300.9
2019-03-13T03:13:17.518Z,300.8
2019-03-13T03:18:26.205Z,301
2019-03-13T03:28:43.500Z,301
2019-03-13T03:33:52.104Z,300.8
2019-03-13T03:39:00.812Z,301.1
2019-03-13T03:44:09.397Z,300.9
2019-03-13T03:54:26.835Z,301.1
2019-03-13T04:04:44.190Z,301.2
2019-03-13T04:09:52.748Z,300.9
2019-03-13T04:15:01.690Z,301.2
2019-03-13T04:25:18.781Z,301.2
2019-03-13T04:30:27.332Z,301
2019-03-13T04:35:35.948Z,301.2
2019-03-13T04:40:44.566Z,301.3
2019-03-13T04:45:53.216Z,301.2
2019-03-13T04:51:01.873Z,301.2
2019-03-13T04:56:10.417Z,300.9
2019-03-13T05:01:19.028Z,301.4
2019-03-13T05:06:27.645Z,300.9
2019-03-13T05:11:36.333Z,301.4
2019-03-13T05:16:44.809Z,301.2
2019-03-13T05:21:53.376Z,301.4
2019-03-13T05:32:10.623Z,301.1
2019-03-13T05:57:53.407Z,301.2
2019-03-13T06:08:10.522Z,301.2
2019-03-13T06:13:19.096Z,301.1
2019-03-13T06:18:27.713Z,301.6
2019-03-13T06:23:36.230Z,301.2
2019-03-13T06:33:53.273Z,301.1
2019-03-13T06:39:01.794Z,301.6
2019-03-13T06:44:10.317Z,301.3
2019-03-13T06:54:27.495Z,301.3
2019-03-13T06:59:35.871Z,301.6
2019-03-13T07:04:44.400Z,301.2
2019-03-13T07:15:01.591Z,301.1
2019-03-13T07:20:09.915Z,301.2
2019-03-13T07:25:18.446Z,301.2
2019-03-13T07:40:44.074Z,301.3
2019-03-13T08:06:27.041Z,301.5
2019-03-13T08:11:35.435Z,301.1
2019-03-13T08:21:52.599Z,301.2
2019-03-13T08:27:00.952Z,301.6
2019-03-13T08:47:34.847Z,301.1
2019-03-13T09:03:00.310Z,300.8
2019-03-13T09:18:25.530Z,301
2019-03-13T09:23:34.065Z,301
2019-03-13T09:33:50.982Z,300.9
2019-03-13T09:38:59.414Z,301.2
2019-03-13T09:44:07.851Z,301.1
2019-03-13T09:49:16.403Z,301
2019-03-13T10:09:50.169Z,300.8
2019-03-13T10:20:07.239Z,300.8
2019-03-13T10:30:24.224Z,300.7
2019-03-13T10:35:32.818Z,300.7
2019-03-13T10:45:49.737Z,300.7
2019-03-13T10:50:58.130Z,300.8
2019-03-13T10:56:06.613Z,301
2019-03-13T11:01:15.104Z,300.6
2019-03-13T11:21:48.965Z,300.8
2019-03-13T11:32:05.806Z,300.9
2019-03-13T11:37:14.245Z,300.8
2019-03-13T11:42:22.728Z,300.9
2019-03-13T11:52:39.490Z,300.8
2019-03-13T12:08:04.779Z,301
2019-03-13T12:13:13.197Z,300.8
2019-03-13T12:18:21.589Z,300.8
2019-03-13T12:23:30.035Z,301
2019-03-13T12:33:46.942Z,301
2019-03-13T12:38:55.370Z,301
2019-03-13T12:44:03.819Z,301
2019-03-13T12:49:12.313Z,300.7
2019-03-13T12:59:29.274Z,301
2019-03-13T13:04:37.755Z,300.8
2019-03-13T13:09:46.317Z,300.9
2019-03-13T13:14:54.775Z,300.5
2019-03-13T13:45:45.981Z,300.5
2019-03-13T13:56:02.740Z,300.6
2019-03-13T14:06:19.861Z,300.6
2019-03-13T14:11:30.347Z,300.6
2019-03-13T14:16:36.791Z,300.8
2019-03-13T14:26:53.886Z,300.5
2019-03-13T14:42:20.044Z,300.5
2019-03-13T14:47:28.085Z,300.6
2019-03-13T14:52:36.664Z,300.5
2019-03-13T15:08:02.525Z,300.7
2019-03-13T15:13:10.722Z,300.4
2019-03-13T15:28:36.210Z,300.4
2019-03-13T15:33:44.700Z,300.6
2019-03-13T15:38:53.126Z,300.4
2019-03-13T15:44:01.676Z,300.6
2019-03-13T15:49:10.038Z,300.4
2019-03-13T15:54:18.520Z,300.6
2019-03-13T15:59:26.931Z,300.4
2019-03-13T16:04:35.348Z,300.7
2019-03-13T16:09:43.819Z,300.4
2019-03-13T16:14:52.265Z,300.4
2019-03-13T16:35:26.279Z,300.5
2019-03-13T16:45:43.168Z,300.5
2019-03-13T16:50:51.646Z,300.6
2019-03-13T16:56:00.117Z,300.8
2019-03-13T17:01:08.579Z,300.4
2019-03-13T17:11:25.496Z,300.5
2019-03-13T17:16:33.968Z,300.5
2019-03-13T17:21:42.467Z,300.8
2019-03-13T17:26:50.819Z,300.7
2019-03-13T17:31:59.246Z,300.8
2019-03-13T17:37:09.192Z,300.7
2019-03-13T17:42:16.242Z,300.6
2019-03-13T17:52:33.176Z,300.6
2019-03-13T17:57:41.510Z,300.7
2019-03-13T18:07:58.492Z,300.9
2019-03-13T18:13:06.929Z,301.1
2019-03-13T18:18:15.457Z,300.8
2019-03-13T18:23:23.836Z,300.7
2019-03-13T18:28:32.301Z,300.9
2019-03-13T18:33:40.785Z,300.8
2019-03-13T18:38:49.287Z,300.9
2019-03-13T18:49:06.577Z,301
2019-03-13T18:54:14.693Z,301
2019-03-13T18:59:23.199Z,300.8
2019-03-13T19:04:31.656Z,300.9
2019-03-13T19:09:40.202Z,300.9
2019-03-13T19:14:48.611Z,301
2019-03-13T19:19:57.363Z,301.1
2019-03-13T19:25:05.568Z,300.7
2019-03-13T19:35:22.603Z,301.2
2019-03-13T19:40:31.099Z,301.2
2019-03-13T19:50:48.160Z,301.3
2019-03-13T20:01:05.521Z,301
2019-03-13T20:06:13.619Z,301.1
2019-03-13T20:16:30.709Z,301.1
2019-03-13T20:26:47.628Z,301.1
2019-03-13T20:31:56.173Z,301.2
2019-03-13T20:37:05.823Z,301.4
2019-03-13T20:47:21.785Z,301.3
2019-03-13T20:52:30.349Z,301.4
2019-03-13T20:57:38.831Z,301.5
2019-03-13T21:02:47.441Z,301.3
2019-03-13T21:07:58.588Z,301.4
2019-03-13T21:13:04.469Z,301.3
2019-03-13T21:18:13.097Z,301.2
2019-03-13T21:23:21.627Z,301.5
2019-03-13T21:38:47.368Z,301.3
2019-03-13T21:43:55.745Z,301.7
2019-03-13T21:49:04.351Z,301.4
2019-03-13T21:54:12.891Z,301.4
2019-03-13T21:59:21.364Z,301.4
2019-03-13T22:04:33.182Z,301.5
2019-03-13T22:09:38.422Z,301.4
2019-03-13T22:14:46.999Z,301.4
2019-03-13T22:19:55.482Z,301.6
2019-03-13T22:25:04.099Z,301.4
2019-03-13T22:30:13.434Z,301.8
2019-03-13T22:35:21.060Z,301.3
2019-03-13T22:40:29.690Z,301.7
2019-03-13T22:45:38.238Z,301.8
2019-03-13T22:50:46.742Z,301.3
2019-03-13T22:55:55.326Z,301.5
2019-03-13T23:01:03.907Z,301.4
2019-03-13T23:06:12.346Z,302
2019-03-13T23:16:30.450Z,301.7
2019-03-13T23:21:42.082Z,301.7
2019-03-13T23:26:46.558Z,301.7
2019-03-13T23:31:55.093Z,301.5
2019-03-13T23:37:06.372Z,301.6
2019-03-13T23:47:20.708Z,301.4
2019-03-13T23:52:29.361Z,301.4
2019-03-13T23:57:37.896Z,301.7
